Time;durP1;ratioP1;P1;durP2;ratioP2;P2;SDS_P1;SDS_P2;PMS_P1;PMS_P2;Temp;Humidity;BMP_temperature;BMP_pressure;BME280_temperature;BME280_humidity;BME280_pressure;Samples;Min_cycle;Max_cycle;Signal;HPM_P1;HPM_P2
2023/10/01 00:00:43;;;;;;;22.70;7.20;;;17.90;85.10;;;;;;5053370;28;20041;-73
2023/10/01 00:03:09;;;;;;;21.83;6.10;;;17.90;85.50;;;;;;5065671;28;20663;-73
2023/10/01 00:05:35;;;;;;;20.90;5.53;;;17.90;85.90;;;;;;5066084;28;20040;-73
2023/10/01 00:08:02;;;;;;;18.77;5.57;;;17.90;86.50;;;;;;5052755;28;20451;-73
2023/10/01 00:10:28;;;;;;;16.88;5.60;;;17.90;87.10;;;;;;5070228;28;20024;-73
2023/10/01 00:12:54;;;;;;;21.52;5.88;;;17.80;88.00;;;;;;5056224;28;20024;-73
2023/10/01 00:15:23;;;;;;;22.10;5.95;;;17.80;88.60;;;;;;5066574;28;20502;-73
2023/10/01 00:17:48;;;;;;;16.92;5.93;;;17.80;88.50;;;;;;5055260;28;20067;-74
2023/10/01 00:20:18;;;;;;;23.77;6.00;;;17.80;89.10;;;;;;5059598;28;20167;-73
2023/10/01 00:22:50;;;;;;;24.23;5.88;;;17.80;89.30;;;;;;5054687;28;20046;-73
2023/10/01 00:25:18;;;;;;;24.38;6.13;;;17.90;89.50;;;;;;5066219;28;20095;-73
2023/10/01 00:27:45;;;;;;;19.17;6.10;;;17.90;89.70;;;;;;5052352;28;20063;-73
2023/10/01 00:30:11;;;;;;;20.13;5.70;;;17.90;89.40;;;;;;5069590;28;20035;-72
2023/10/01 00:32:38;;;;;;;23.92;5.97;;;18.00;89.50;;;;;;5057444;28;20024;-73
2023/10/01 00:35:04;;;;;;;25.35;6.65;;;18.00;89.40;;;;;;5065859;28;20046;-73
2023/10/01 00:37:32;;;;;;;19.63;6.43;;;18.00;89.00;;;;;;5055461;28;20058;-74
2023/10/01 00:39:59;;;;;;;20.58;5.85;;;18.00;88.00;;;;;;5063899;28;20032;-72
2023/10/01 00:42:26;;;;;;;28.08;6.47;;;18.00;87.40;;;;;;5056404;28;20042;-72
2023/10/01 00:44:53;;;;;;;25.00;6.30;;;18.00;87.50;;;;;;5073355;28;20024;-73
2023/10/01 00:47:21;;;;;;;18.05;5.70;;;18.00;87.20;;;;;;5052167;28;20020;-73
2023/10/01 00:49:48;;;;;;;21.42;6.50;;;18.00;87.40;;;;;;5067961;28;20090;-73
2023/10/01 00:52:18;;;;;;;18.50;5.22;;;18.00;87.80;;;;;;5068497;28;20036;-72
2023/10/01 00:54:44;;;;;;;20.88;6.38;;;17.90;88.40;;;;;;5053070;28;20035;-72
2023/10/01 00:57:10;;;;;;;22.92;5.35;;;17.90;89.30;;;;;;5068523;28;20129;-72
2023/10/01 00:59:36;;;;;;;23.90;6.05;;;17.80;90.00;;;;;;5054035;28;20036;-73
2023/10/01 01:02:06;;;;;;;25.73;6.90;;;17.70;90.40;;;;;;5069693;28;20569;-72
2023/10/01 01:04:36;;;;;;;16.90;5.25;;;17.70;90.80;;;;;;5056807;28;21031;-72
2023/10/01 01:07:14;;;;;;;21.30;6.88;;;17.60;90.80;;;;;;5063654;28;20032;-72
2023/10/01 01:09:41;;;;;;;21.45;5.85;;;17.70;91.20;;;;;;5052101;28;20032;-73
2023/10/01 01:12:07;;;;;;;24.40;6.57;;;17.60;91.30;;;;;;5067592;28;20062;-73
2023/10/01 01:14:33;;;;;;;25.45;6.45;;;17.70;91.60;;;;;;5048327;28;20500;-72
2023/10/01 01:17:00;;;;;;;25.33;6.10;;;17.70;91.60;;;;;;5067935;28;20039;-73
2023/10/01 01:19:26;;;;;;;20.25;6.53;;;17.60;92.10;;;;;;5052916;28;20415;-72
2023/10/01 01:21:52;;;;;;;20.33;5.82;;;17.60;92.20;;;;;;5069341;28;20174;-73
2023/10/01 01:24:24;;;;;;;25.17;6.68;;;17.50;92.40;;;;;;5057823;28;20039;-72
2023/10/01 01:26:51;;;;;;;22.83;6.32;;;17.50;92.70;;;;;;5067200;28;20028;-72
2023/10/01 01:29:29;;;;;;;22.67;6.88;;;17.50;92.90;;;;;;5058665;28;20056;-72
2023/10/01 01:32:07;;;;;;;24.30;7.05;;;17.40;93.30;;;;;;5073478;28;20082;-72
2023/10/01 01:34:34;;;;;;;24.67;6.47;;;17.40;93.40;;;;;;5050443;28;20028;-72
2023/10/01 01:37:04;;;;;;;23.80;6.68;;;17.40;93.40;;;;;;5072856;28;20032;-71
2023/10/01 01:39:49;;;;;;;22.95;6.85;;;17.40;93.50;;;;;;5056931;28;20481;-74
2023/10/01 01:42:19;;;;;;;26.83;6.97;;;17.30;93.70;;;;;;5069815;28;20016;-73
2023/10/01 01:44:47;;;;;;;25.25;7.88;;;17.30;93.80;;;;;;5058810;28;20032;-73
2023/10/01 01:47:15;;;;;;;22.33;6.63;;;17.40;93.70;;;;;;5068941;28;20031;-73
2023/10/01 01:49:43;;;;;;;34.58;7.05;;;17.30;93.60;;;;;;5058621;28;20541;-74
2023/10/01 01:52:09;;;;;;;24.05;7.30;;;17.40;93.60;;;;;;5072538;28;20040;-73
2023/10/01 01:54:37;;;;;;;26.30;6.45;;;17.40;92.10;;;;;;5055406;28;20170;-73
2023/10/01 01:57:02;;;;;;;20.67;6.72;;;17.60;90.70;;;;;;5072133;28;20426;-74
2023/10/01 01:59:29;;;;;;;16.90;6.45;;;17.70;90.10;;;;;;5071243;28;20035;-73
2023/10/01 02:01:56;;;;;;;17.58;7.22;;;17.80;89.40;;;;;;5046075;28;20067;-73
2023/10/01 02:04:23;;;;;;;22.55;6.50;;;17.80;89.30;;;;;;5063271;28;20028;-74
2023/10/01 02:06:50;;;;;;;25.50;7.30;;;17.90;89.20;;;;;;5052008;28;20040;-73
2023/10/01 02:09:19;;;;;;;20.33;7.07;;;17.90;88.90;;;;;;5060448;28;20516;-73
2023/10/01 02:11:47;;;;;;;24.52;7.35;;;17.90;89.00;;;;;;5067660;28;20058;-74
2023/10/01 02:14:30;;;;;;;22.23;7.72;;;17.90;89.20;;;;;;5043660;28;20036;-73
2023/10/01 02:17:03;;;;;;;21.33;6.93;;;17.80;88.90;;;;;;5068038;28;20028;-73
2023/10/01 02:19:29;;;;;;;20.05;6.38;;;17.80;88.70;;;;;;5051069;28;20070;-73
2023/10/01 02:22:05;;;;;;;20.55;6.30;;;17.80;88.90;;;;;;5061777;28;20959;-73
2023/10/01 02:25:04;;;;;;;25.95;7.55;;;17.80;88.70;;;;;;5056736;28;20028;-73
2023/10/01 02:27:19;;;;;;;19.13;6.55;;;17.90;88.40;;;;;;5059941;28;20044;-73
2023/10/01 02:30:10;;;;;;;17.75;6.57;;;17.90;88.60;;;;;;5057461;28;20131;-74
2023/10/01 02:32:30;;;;;;;21.52;7.07;;;17.90;88.70;;;;;;5068743;28;20067;-73
2023/10/01 02:34:57;;;;;;;26.77;7.50;;;17.80;89.00;;;;;;5058565;28;20041;-73
2023/10/01 02:37:35;;;;;;;22.50;6.53;;;17.80;89.20;;;;;;5072946;28;20035;-73
2023/10/01 02:40:18;;;;;;;18.02;6.72;;;17.80;89.40;;;;;;5052709;28;20031;-73
2023/10/01 02:42:45;;;;;;;25.20;7.75;;;17.90;89.20;;;;;;5071288;28;20027;-73
2023/10/01 02:45:30;;;;;;;20.67;6.68;;;17.80;89.80;;;;;;5059291;28;20168;-73
2023/10/01 02:48:29;;;;;;;21.52;6.60;;;17.80;90.10;;;;;;5066407;28;20059;-73
2023/10/01 02:50:48;;;;;;;19.27;6.63;;;17.80;90.30;;;;;;5067160;28;20032;-73
2023/10/01 02:53:15;;;;;;;23.30;7.18;;;17.70;90.40;;;;;;5066183;28;20032;-74
2023/10/01 02:55:44;;;;;;;24.05;6.82;;;17.70;90.70;;;;;;5053340;28;20043;-72
2023/10/01 02:58:26;;;;;;;26.23;7.82;;;17.70;91.20;;;;;;5071762;28;20040;-72
2023/10/01 03:00:53;;;;;;;23.83;7.50;;;17.70;91.00;;;;;;5049884;28;20068;-72
2023/10/01 03:03:31;;;;;;;21.38;6.40;;;17.70;91.20;;;;;;5069896;28;20040;-71
2023/10/01 03:05:57;;;;;;;27.23;7.82;;;17.60;91.60;;;;;;5057441;28;20040;-72
2023/10/01 03:08:41;;;;;;;24.02;7.53;;;17.60;91.80;;;;;;5069041;28;20557;-72
2023/10/01 03:11:08;;;;;;;26.63;7.75;;;17.50;92.20;;;;;;5058814;28;20470;-72
2023/10/01 03:13:36;;;;;;;25.35;8.23;;;17.50;92.50;;;;;;5072475;28;20553;-72
2023/10/01 03:17:08;;;;;;;26.40;7.93;;;17.50;92.80;;;;;;5057669;28;20121;-72
2023/10/01 03:18:54;;;;;;;26.30;7.72;;;17.50;92.90;;;;;;5068216;28;20048;-73
2023/10/01 03:22:13;;;;;;;23.63;8.18;;;17.40;93.10;;;;;;5055379;28;20044;-72
2023/10/01 03:24:09;;;;;;;31.15;8.48;;;17.40;93.20;;;;;;5071879;28;20083;-72
2023/10/01 03:26:35;;;;;;;25.48;7.63;;;17.40;93.20;;;;;;5056071;28;20491;-72
2023/10/01 03:29:21;;;;;;;27.85;7.80;;;17.40;93.30;;;;;;5066745;28;20088;-72
2023/10/01 03:31:46;;;;;;;29.15;8.60;;;17.40;93.40;;;;;;5054327;28;20437;-72
2023/10/01 03:34:28;;;;;;;28.38;8.18;;;17.40;93.70;;;;;;5065216;28;20064;-72
2023/10/01 03:36:58;;;;;;;27.83;7.57;;;17.40;93.70;;;;;;5060358;28;20028;-72
2023/10/01 03:39:26;;;;;;;26.00;8.23;;;17.40;93.90;;;;;;5071972;28;20029;-72
2023/10/01 03:41:54;;;;;;;27.58;8.65;;;17.30;94.00;;;;;;5052906;28;20040;-72
2023/10/01 03:44:59;;;;;;;34.28;8.68;;;17.30;94.30;;;;;;5073543;28;20032;-72
2023/10/01 03:47:10;;;;;;;24.15;8.35;;;17.30;94.40;;;;;;5052410;28;20040;-72
2023/10/01 03:50:09;;;;;;;30.38;9.68;;;17.20;94.60;;;;;;5066011;28;20032;-73
2023/10/01 03:52:21;;;;;;;25.40;8.57;;;17.20;94.80;;;;;;5058808;28;20127;-73
2023/10/01 03:55:25;;;;;;;24.52;9.48;;;17.20;94.90;;;;;;5068348;28;20495;-72
2023/10/01 03:57:52;;;;;;;31.15;8.52;;;17.20;95.00;;;;;;5058008;28;20047;-73
2023/10/01 04:00:31;;;;;;;27.23;8.75;;;17.20;95.00;;;;;;5065417;28;20044;-73
2023/10/01 04:02:57;;;;;;;27.10;8.80;;;17.20;95.00;;;;;;5056574;28;20123;-73
2023/10/01 04:05:28;;;;;;;31.33;8.73;;;17.20;94.90;;;;;;5066897;28;20472;-73
2023/10/01 04:07:55;;;;;;;28.92;9.30;;;17.20;94.90;;;;;;5051165;28;20034;-74
2023/10/01 04:10:28;;;;;;;27.98;8.05;;;17.20;94.90;;;;;;5070260;28;20734;-72
2023/10/01 04:12:55;;;;;;;31.05;8.10;;;17.20;94.80;;;;;;5059112;28;20511;-72
2023/10/01 04:15:29;;;;;;;28.88;8.98;;;17.30;95.00;;;;;;5061699;28;20035;-72
2023/10/01 04:18:29;;;;;;;29.02;8.45;;;17.30;94.70;;;;;;5058280;28;20032;-73
2023/10/01 04:23:36;;;;;;;31.55;8.93;;;17.30;94.60;;;;;;5056333;28;20284;-72
2023/10/01 04:26:06;;;;;;;27.05;8.95;;;17.30;94.70;;;;;;5071164;28;20024;-71
2023/10/01 04:28:35;;;;;;;26.02;8.30;;;17.30;94.70;;;;;;5052805;28;20024;-71
2023/10/01 04:31:06;;;;;;;28.55;8.80;;;17.20;94.80;;;;;;5067611;28;20020;-73
2023/10/01 04:33:32;;;;;;;30.33;9.13;;;17.20;94.90;;;;;;5052726;28;20062;-72
2023/10/01 04:35:58;;;;;;;26.05;8.48;;;17.20;94.90;;;;;;5062585;28;20032;-72
2023/10/01 04:38:28;;;;;;;28.20;8.43;;;17.30;95.00;;;;;;5056508;28;20043;-72
2023/10/01 04:40:55;;;;;;;28.08;7.85;;;17.30;94.90;;;;;;5066039;28;20043;-72
2023/10/01 04:43:21;;;;;;;22.77;7.93;;;17.20;94.90;;;;;;5060798;28;20036;-72
2023/10/01 04:45:50;;;;;;;23.45;9.07;;;17.30;95.00;;;;;;5073673;28;20491;-72
2023/10/01 04:48:22;;;;;;;30.95;8.98;;;17.20;95.00;;;;;;5053681;28;20043;-73
2023/10/01 04:50:53;;;;;;;24.77;8.18;;;17.20;95.20;;;;;;5072279;28;20080;-72
2023/10/01 04:53:20;;;;;;;27.65;8.43;;;17.20;95.10;;;;;;5059349;28;20388;-73
2023/10/01 04:56:00;;;;;;;25.42;8.73;;;17.20;95.40;;;;;;5067821;28;20323;-73
2023/10/01 04:58:29;;;;;;;30.88;8.52;;;17.10;95.20;;;;;;5060141;28;20496;-73
2023/10/01 05:00:55;;;;;;;27.08;8.85;;;17.10;95.50;;;;;;5072612;28;20123;-73
2023/10/01 05:03:38;;;;;;;26.30;8.20;;;17.20;95.60;;;;;;5059664;28;20043;-73
2023/10/01 05:06:12;;;;;;;24.75;8.57;;;17.20;95.50;;;;;;5073981;28;20127;-72
2023/10/01 05:08:39;;;;;;;29.33;8.43;;;17.10;95.40;;;;;;5054243;28;20028;-74
2023/10/01 05:11:11;;;;;;;27.08;8.30;;;17.10;95.50;;;;;;5075063;28;20062;-73
2023/10/01 05:13:40;;;;;;;31.00;8.65;;;17.10;95.50;;;;;;5060629;28;20039;-73
2023/10/01 05:16:07;;;;;;;31.27;8.23;;;17.10;95.60;;;;;;5071899;28;20024;-73
2023/10/01 05:18:34;;;;;;;31.95;9.02;;;17.10;95.90;;;;;;5056308;28;20692;-73
2023/10/01 05:21:04;;;;;;;33.22;8.82;;;17.10;96.10;;;;;;5067361;28;20032;-73
2023/10/01 05:23:30;;;;;;;28.73;8.32;;;17.10;96.30;;;;;;5060280;28;20190;-74
2023/10/01 05:25:57;;;;;;;28.88;8.63;;;17.10;96.00;;;;;;5070782;28;20048;-73
2023/10/01 05:28:23;;;;;;;27.55;8.45;;;17.10;96.10;;;;;;5066340;28;20385;-72
2023/10/01 05:30:57;;;;;;;29.98;8.52;;;17.10;95.90;;;;;;5061856;28;20467;-73
2023/10/01 05:33:24;;;;;;;31.52;8.88;;;17.10;95.90;;;;;;5072114;28;20040;-72
2023/10/01 05:35:54;;;;;;;32.83;8.98;;;17.10;96.00;;;;;;5050962;28;20063;-73
2023/10/01 05:38:21;;;;;;;26.20;9.00;;;17.10;96.00;;;;;;5070568;28;21161;-73
2023/10/01 05:40:52;;;;;;;29.95;9.07;;;17.10;96.00;;;;;;5056942;28;20046;-73
2023/10/01 05:43:18;;;;;;;30.17;8.18;;;17.10;96.00;;;;;;5073955;28;20050;-72
2023/10/01 05:45:52;;;;;;;33.92;9.50;;;17.20;95.90;;;;;;5060905;28;20078;-72
2023/10/01 05:48:20;;;;;;;26.60;8.60;;;17.20;95.90;;;;;;5070759;28;20099;-72
2023/10/01 05:50:47;;;;;;;31.92;9.45;;;17.20;95.90;;;;;;5059000;28;20113;-72
2023/10/01 05:53:13;;;;;;;26.75;8.88;;;17.20;95.90;;;;;;5072685;28;20020;-72
2023/10/01 05:55:40;;;;;;;34.72;9.80;;;17.20;96.00;;;;;;5053666;28;20045;-72
2023/10/01 05:58:13;;;;;;;26.05;8.55;;;17.10;96.00;;;;;;5068552;28;20082;-73
2023/10/01 06:00:45;;;;;;;29.35;9.32;;;17.10;96.10;;;;;;5050988;28;20043;-73
2023/10/01 06:03:13;;;;;;;33.50;9.82;;;17.10;96.00;;;;;;5065211;28;20430;-72
2023/10/01 06:05:46;;;;;;;37.92;9.43;;;17.10;96.20;;;;;;5058516;28;20032;-72
2023/10/01 06:08:15;;;;;;;29.10;9.48;;;17.20;96.30;;;;;;5063124;28;20111;-73
2023/10/01 06:11:05;;;;;;;33.65;10.93;;;17.20;96.30;;;;;;5053374;28;20032;-72
2023/10/01 06:13:31;;;;;;;35.53;10.00;;;17.20;96.30;;;;;;5073915;28;20123;-72
2023/10/01 06:16:11;;;;;;;25.67;9.65;;;17.40;96.10;;;;;;5056849;28;20093;-72
2023/10/01 06:18:41;;;;;;;29.05;9.27;;;17.40;96.00;;;;;;5071661;28;20551;-72
2023/10/01 06:21:09;;;;;;;32.58;9.40;;;17.50;95.80;;;;;;5054613;28;20812;-72
2023/10/01 06:23:49;;;;;;;33.20;9.25;;;17.50;95.70;;;;;;5073419;28;20154;-72
2023/10/01 06:26:18;;;;;;;33.17;9.63;;;17.60;95.60;;;;;;5058733;28;20031;-72
2023/10/01 06:28:44;;;;;;;32.47;9.88;;;17.60;95.40;;;;;;5066095;28;20436;-72
2023/10/01 06:31:10;;;;;;;33.70;9.40;;;17.70;95.30;;;;;;5059275;28;20028;-73
2023/10/01 06:33:38;;;;;;;29.52;8.85;;;17.80;95.00;;;;;;5074204;28;20060;-73
2023/10/01 06:36:21;;;;;;;28.65;8.80;;;17.90;94.80;;;;;;5054156;28;20322;-73
2023/10/01 06:38:48;;;;;;;24.95;7.93;;;18.00;94.70;;;;;;5071179;28;20036;-73
2023/10/01 06:41:18;;;;;;;21.92;7.95;;;18.00;94.50;;;;;;5051501;28;21041;-73
2023/10/01 06:43:48;;;;;;;26.95;8.50;;;18.10;94.40;;;;;;5074338;28;20035;-73
2023/10/01 06:46:28;;;;;;;25.23;9.05;;;18.20;94.20;;;;;;5058595;28;20036;-73
2023/10/01 06:48:56;;;;;;;23.38;8.45;;;18.20;94.10;;;;;;5063922;28;20394;-74
2023/10/01 06:51:24;;;;;;;24.83;7.35;;;18.30;93.80;;;;;;5059048;28;20064;-73
2023/10/01 06:53:58;;;;;;;22.65;7.93;;;18.30;93.80;;;;;;5073346;28;20139;-73
2023/10/01 06:56:25;;;;;;;25.58;7.88;;;18.40;93.60;;;;;;5061559;28;20047;-72
2023/10/01 06:59:14;;;;;;;24.33;8.18;;;18.50;93.50;;;;;;5066146;28;20740;-72
2023/10/01 07:01:56;;;;;;;23.15;8.25;;;18.50;93.50;;;;;;5059746;28;20028;-72
2023/10/01 07:04:24;;;;;;;25.02;7.63;;;18.40;93.50;;;;;;5076618;28;20064;-72
2023/10/01 07:06:51;;;;;;;18.63;7.53;;;18.40;93.50;;;;;;5058080;28;20039;-71
2023/10/01 07:09:34;;;;;;;25.60;8.02;;;18.50;93.50;;;;;;5048295;28;20032;-72
2023/10/01 07:12:01;;;;;;;23.38;8.00;;;18.50;93.40;;;;;;5054148;28;20028;-72
2023/10/01 07:14:30;;;;;;;21.75;7.95;;;18.60;93.20;;;;;;5069192;28;20113;-72
2023/10/01 07:16:57;;;;;;;24.33;7.93;;;18.70;93.10;;;;;;5056952;28;20023;-73
2023/10/01 07:19:23;;;;;;;22.83;7.85;;;18.70;93.20;;;;;;5057477;28;20523;-73
2023/10/01 07:21:56;;;;;;;25.17;8.20;;;18.70;93.40;;;;;;5066197;28;20043;-73
2023/10/01 07:24:23;;;;;;;25.83;8.25;;;18.70;93.00;;;;;;5057172;28;20028;-73
2023/10/01 07:26:50;;;;;;;26.55;8.43;;;18.70;93.00;;;;;;5068103;28;20028;-73
2023/10/01 07:29:16;;;;;;;21.35;8.35;;;18.80;92.90;;;;;;5050406;28;20054;-73
2023/10/01 07:31:43;;;;;;;23.45;7.97;;;18.80;92.70;;;;;;5069593;28;20493;-73
2023/10/01 07:34:16;;;;;;;26.42;8.10;;;18.90;92.50;;;;;;5056959;28;20028;-72
2023/10/01 07:36:42;;;;;;;21.67;7.40;;;19.00;92.30;;;;;;5067831;28;20094;-73
2023/10/01 07:39:13;;;;;;;19.23;7.88;;;19.10;92.10;;;;;;5057098;28;20999;-73
2023/10/01 07:41:39;;;;;;;26.35;8.20;;;19.20;91.80;;;;;;5059526;28;20040;-72
2023/10/01 07:44:08;;;;;;;26.02;7.68;;;19.20;91.70;;;;;;5054619;28;20101;-72
2023/10/01 07:46:36;;;;;;;22.42;7.53;;;19.20;91.60;;;;;;5073071;28;20419;-72
2023/10/01 07:49:02;;;;;;;22.27;7.57;;;19.20;91.60;;;;;;5052567;28;20059;-72
2023/10/01 07:51:35;;;;;;;23.00;7.85;;;19.30;91.50;;;;;;5068842;28;20264;-72
2023/10/01 07:54:09;;;;;;;23.15;7.20;;;19.30;91.20;;;;;;5059707;28;20476;-72
2023/10/01 07:56:37;;;;;;;26.38;8.38;;;19.40;91.20;;;;;;5065830;28;20483;-72
2023/10/01 07:59:16;;;;;;;22.00;7.28;;;19.50;91.00;;;;;;5055605;28;20024;-72
2023/10/01 08:01:43;;;;;;;19.38;8.07;;;19.50;90.80;;;;;;5065056;28;21075;-74
2023/10/01 08:05:19;;;;;;;22.67;8.15;;;19.50;90.90;;;;;;5052653;28;20464;-72
2023/10/01 08:07:06;;;;;;;30.05;8.70;;;19.60;90.60;;;;;;5075674;28;20036;-72
2023/10/01 08:09:33;;;;;;;22.02;7.35;;;19.70;90.40;;;;;;5049376;28;20028;-72
2023/10/01 08:12:05;;;;;;;29.23;8.05;;;19.80;90.20;;;;;;5067049;28;20123;-71
2023/10/01 08:14:33;;;;;;;23.75;7.63;;;20.00;90.10;;;;;;5053500;28;20063;-72
2023/10/01 08:17:03;;;;;;;22.52;7.15;;;20.10;89.20;;;;;;5070698;28;20057;-73
2023/10/01 08:19:44;;;;;;;26.30;7.90;;;20.10;88.20;;;;;;5058364;28;20136;-73
2023/10/01 08:22:14;;;;;;;19.17;7.13;;;20.10;88.10;;;;;;5065845;28;21054;-73
2023/10/01 08:24:45;;;;;;;21.50;7.38;;;20.20;87.20;;;;;;5060794;28;20032;-72
2023/10/01 08:27:14;;;;;;;25.02;8.25;;;20.20;86.80;;;;;;5071350;28;20471;-73
2023/10/01 08:30:43;;;;;;;19.20;6.97;;;20.10;86.70;;;;;;5054907;28;20035;-73
2023/10/01 08:32:38;;;;;;;19.92;6.65;;;20.00;87.30;;;;;;5072842;28;20036;-73
2023/10/01 08:35:06;;;;;;;19.77;7.50;;;20.00;87.20;;;;;;5059040;28;20853;-73
2023/10/01 08:37:37;;;;;;;19.70;6.87;;;20.10;86.90;;;;;;5070201;28;20514;-73
2023/10/01 08:40:13;;;;;;;25.58;7.88;;;20.20;86.80;;;;;;5057632;28;20273;-73
2023/10/01 08:42:43;;;;;;;21.60;7.88;;;20.20;87.10;;;;;;5063769;28;20035;-73
2023/10/01 08:45:12;;;;;;;18.13;6.97;;;20.10;86.90;;;;;;5060688;28;20036;-73
2023/10/01 08:47:38;;;;;;;21.70;7.27;;;20.20;86.30;;;;;;5075944;28;20119;-73
2023/10/01 08:50:40;;;;;;;21.50;6.93;;;20.20;86.60;;;;;;5065596;28;20032;-73
2023/10/01 08:52:57;;;;;;;12.48;6.30;;;20.20;86.90;;;;;;5071005;28;20040;-72
2023/10/01 08:55:35;;;;;;;20.40;7.30;;;20.20;87.00;;;;;;5063439;28;20039;-73
2023/10/01 08:58:25;;;;;;;19.25;7.20;;;20.40;86.30;;;;;;5074027;28;20032;-73
2023/10/01 09:00:56;;;;;;;22.13;7.30;;;20.20;86.60;;;;;;5057462;28;20468;-73
2023/10/01 09:03:34;;;;;;;23.65;7.15;;;20.30;86.00;;;;;;5065545;28;20047;-73
2023/10/01 09:06:03;;;;;;;21.70;7.57;;;20.50;85.70;;;;;;5057877;28;20733;-73
2023/10/01 09:08:31;;;;;;;22.40;7.55;;;20.60;85.40;;;;;;5071747;28;20035;-73
2023/10/01 09:11:10;;;;;;;20.92;6.78;;;20.60;85.30;;;;;;5062102;28;20547;-73
2023/10/01 09:13:44;;;;;;;22.20;7.82;;;20.70;84.90;;;;;;5069075;28;20479;-73
2023/10/01 09:16:10;;;;;;;20.00;7.70;;;20.60;85.10;;;;;;5053398;28;20074;-72
2023/10/01 09:19:02;;;;;;;20.65;8.10;;;20.60;84.90;;;;;;5070440;28;20053;-72
2023/10/01 09:21:28;;;;;;;24.08;7.68;;;20.50;85.40;;;;;;5056311;28;20367;-72
2023/10/01 09:23:55;;;;;;;19.45;7.60;;;20.70;84.70;;;;;;5069491;28;20594;-72
2023/10/01 09:26:39;;;;;;;21.17;7.05;;;20.60;85.30;;;;;;5070240;28;20063;-72
2023/10/01 09:29:20;;;;;;;15.50;7.40;;;20.70;84.70;;;;;;5071214;28;20111;-72
2023/10/01 09:32:07;;;;;;;21.20;7.55;;;20.80;83.80;;;;;;5056667;28;20538;-73
2023/10/01 09:34:34;;;;;;;20.23;7.32;;;20.90;83.40;;;;;;5073347;28;20036;-73
2023/10/01 09:37:02;;;;;;;23.08;7.70;;;21.00;82.40;;;;;;5055429;28;20077;-73
2023/10/01 09:39:41;;;;;;;20.17;7.65;;;21.10;82.30;;;;;;5071501;28;20388;-73
2023/10/01 09:42:22;;;;;;;24.92;7.90;;;21.30;81.60;;;;;;5056350;28;20036;-74
2023/10/01 09:44:53;;;;;;;19.73;7.55;;;21.30;81.00;;;;;;5067078;28;20043;-73
2023/10/01 09:47:24;;;;;;;19.92;7.85;;;21.10;82.10;;;;;;5054098;28;20488;-73
2023/10/01 09:49:52;;;;;;;20.48;7.63;;;21.20;81.80;;;;;;5070769;28;20870;-74
2023/10/01 09:52:30;;;;;;;23.67;7.22;;;21.30;81.00;;;;;;5066802;28;20032;-72
2023/10/01 09:55:03;;;;;;;23.23;7.45;;;21.10;82.00;;;;;;5073207;28;20025;-72
2023/10/01 09:57:34;;;;;;;20.85;7.38;;;21.30;81.30;;;;;;5057355;28;20040;-72
2023/10/01 10:00:17;;;;;;;19.38;7.35;;;21.50;80.40;;;;;;5075695;28;20041;-72
2023/10/01 10:02:51;;;;;;;19.88;7.43;;;21.60;79.70;;;;;;5053338;28;20089;-72
2023/10/01 10:05:24;;;;;;;16.15;6.82;;;21.70;78.90;;;;;;5070961;28;20033;-72
2023/10/01 10:07:53;;;;;;;21.23;7.93;;;21.90;78.30;;;;;;5064752;28;20032;-72
2023/10/01 10:10:24;;;;;;;19.55;7.70;;;22.30;76.90;;;;;;5065258;28;20040;-72
2023/10/01 10:12:56;;;;;;;19.20;7.45;;;22.60;75.70;;;;;;5074321;28;20032;-72
2023/10/01 10:15:57;;;;;;;19.05;8.20;;;22.30;75.60;;;;;;5066315;28;20185;-71
2023/10/01 10:18:25;;;;;;;22.80;8.20;;;22.10;77.20;;;;;;5051292;28;20045;-71
2023/10/01 10:20:59;;;;;;;17.52;7.72;;;22.10;76.50;;;;;;5067538;28;20036;-72
2023/10/01 10:23:29;;;;;;;19.48;7.13;;;22.10;76.50;;;;;;5051233;28;20040;-72
2023/10/01 10:26:12;;;;;;;20.00;7.07;;;22.10;76.00;;;;;;5072420;28;20587;-73
2023/10/01 10:28:55;;;;;;;21.25;8.15;;;22.10;76.40;;;;;;5056994;28;20047;-73
2023/10/01 10:31:33;;;;;;;23.77;7.35;;;22.20;75.60;;;;;;5072977;28;20028;-73
2023/10/01 10:34:28;;;;;;;20.67;7.60;;;22.10;75.80;;;;;;5054000;28;20036;-73
2023/10/01 10:36:55;;;;;;;23.38;7.60;;;22.40;74.90;;;;;;5066827;28;20173;-74
2023/10/01 10:40:23;;;;;;;17.27;7.38;;;22.70;73.80;;;;;;5057260;28;20111;-73
2023/10/01 10:42:47;;;;;;;16.33;7.82;;;23.10;71.60;;;;;;5066231;28;20032;-73
2023/10/01 10:46:18;;;;;;;20.08;7.65;;;23.40;70.20;;;;;;5057920;28;20063;-73
2023/10/01 10:48:03;;;;;;;23.15;8.32;;;23.10;70.20;;;;;;5070438;28;20040;-73
2023/10/01 10:50:58;;;;;;;21.85;7.80;;;22.70;69.90;;;;;;5051367;28;20063;-73
2023/10/01 10:53:42;;;;;;;24.83;8.52;;;22.60;70.10;;;;;;5072433;28;20028;-72
2023/10/01 10:56:10;;;;;;;19.90;8.25;;;22.50;69.30;;;;;;5057853;28;20129;-73
2023/10/01 10:58:39;;;;;;;23.65;8.20;;;22.40;70.40;;;;;;5070782;28;20043;-73
2023/10/01 11:01:23;;;;;;;23.10;8.93;;;22.50;70.10;;;;;;5057537;28;20412;-72
2023/10/01 11:03:54;;;;;;;29.73;9.13;;;22.10;70.90;;;;;;5067971;28;20032;-73
2023/10/01 11:06:24;;;;;;;19.63;8.60;;;22.00;71.60;;;;;;5055325;28;20245;-73
2023/10/01 11:08:52;;;;;;;21.92;9.15;;;22.30;71.00;;;;;;5070957;28;20746;-73
2023/10/01 11:11:39;;;;;;;25.65;8.98;;;22.60;70.00;;;;;;5053692;28;20115;-73
2023/10/01 11:14:12;;;;;;;23.65;9.40;;;22.70;70.50;;;;;;5069902;28;20032;-73
2023/10/01 11:16:40;;;;;;;24.23;9.02;;;22.60;70.60;;;;;;5049827;28;20185;-73
2023/10/01 11:19:16;;;;;;;22.50;9.38;;;22.40;70.70;;;;;;5065902;28;20614;-73
2023/10/01 11:21:59;;;;;;;23.70;9.07;;;22.50;71.40;;;;;;5054507;28;20032;-72
2023/10/01 11:24:30;;;;;;;25.92;9.27;;;22.60;71.40;;;;;;5068593;28;20035;-74
2023/10/01 11:27:19;;;;;;;25.70;9.30;;;22.50;71.30;;;;;;5058434;28;20020;-73
2023/10/01 11:30:13;;;;;;;24.33;9.35;;;22.40;71.60;;;;;;5065197;28;20131;-72
2023/10/01 11:33:29;;;;;;;28.52;9.88;;;22.10;72.50;;;;;;5059484;28;20476;-72
2023/10/01 11:36:09;;;;;;;24.65;10.10;;;22.00;73.50;;;;;;5054459;28;20523;-72
2023/10/01 11:38:38;;;;;;;24.90;9.35;;;22.30;71.90;;;;;;5070207;28;20523;-74
2023/10/01 11:41:07;;;;;;;26.00;8.98;;;22.70;70.50;;;;;;5057280;28;20157;-73
2023/10/01 11:44:06;;;;;;;23.80;8.95;;;22.90;69.50;;;;;;5064249;28;20123;-73
2023/10/01 11:46:35;;;;;;;25.58;9.65;;;23.00;69.50;;;;;;5060527;28;20625;-73
2023/10/01 11:49:16;;;;;;;19.85;9.13;;;23.10;69.00;;;;;;5063716;28;20850;-73
2023/10/01 11:51:45;;;;;;;33.20;10.30;;;23.00;69.50;;;;;;5050953;28;20048;-72
2023/10/01 11:54:13;;;;;;;23.38;9.30;;;22.80;70.20;;;;;;5069172;28;20895;-73
2023/10/01 11:56:42;;;;;;;23.40;8.50;;;22.80;69.80;;;;;;5052938;28;20039;-72
2023/10/01 11:59:11;;;;;;;23.92;9.05;;;23.00;70.50;;;;;;5070364;28;20172;-72
2023/10/01 12:01:39;;;;;;;22.40;8.38;;;23.30;69.50;;;;;;5061295;28;20077;-73
2023/10/01 12:04:06;;;;;;;26.00;9.73;;;23.70;67.40;;;;;;5063670;28;20549;-72
2023/10/01 12:06:34;;;;;;;25.35;9.70;;;24.00;67.00;;;;;;5069669;28;20059;-72
2023/10/01 12:09:00;;;;;;;30.23;9.57;;;24.00;66.30;;;;;;5052846;28;20029;-73
2023/10/01 12:11:26;;;;;;;21.83;8.52;;;23.80;66.40;;;;;;5063571;28;20302;-72
2023/10/01 12:14:08;;;;;;;28.42;9.70;;;23.90;66.20;;;;;;5051686;28;20785;-72
2023/10/01 12:16:39;;;;;;;24.50;8.65;;;23.60;67.10;;;;;;5069212;28;20035;-72
2023/10/01 12:19:37;;;;;;;23.73;8.98;;;23.50;67.30;;;;;;5053620;28;20084;-72
2023/10/01 12:22:09;;;;;;;31.13;10.32;;;23.40;68.10;;;;;;5065037;28;20028;-72
2023/10/01 12:24:39;;;;;;;23.83;8.73;;;23.20;69.40;;;;;;5052809;28;20453;-72
2023/10/01 12:27:07;;;;;;;24.58;9.52;;;23.70;67.80;;;;;;5070772;28;21431;-72
2023/10/01 12:29:42;;;;;;;25.50;8.43;;;23.50;67.70;;;;;;5051050;28;20392;-72
2023/10/01 12:32:12;;;;;;;29.27;10.45;;;23.50;68.10;;;;;;5067772;28;20491;-72
2023/10/01 12:34:39;;;;;;;28.70;9.40;;;23.30;70.40;;;;;;5056452;28;20452;-73
2023/10/01 12:37:07;;;;;;;27.38;9.32;;;23.00;70.40;;;;;;5065445;28;20028;-72
2023/10/01 12:39:34;;;;;;;23.50;8.48;;;23.00;70.40;;;;;;5054456;28;20034;-73
2023/10/01 12:42:04;;;;;;;24.95;9.20;;;22.90;71.10;;;;;;5066351;28;20044;-73
2023/10/01 12:44:31;;;;;;;20.77;8.85;;;22.80;71.30;;;;;;5051654;28;20035;-73
2023/10/01 12:47:02;;;;;;;24.80;9.05;;;23.00;69.60;;;;;;5070345;28;20036;-72
2023/10/01 12:49:33;;;;;;;24.35;8.93;;;22.80;70.50;;;;;;5053673;28;20051;-72
2023/10/01 12:51:59;;;;;;;31.15;9.90;;;23.00;70.50;;;;;;5062353;28;20065;-72
2023/10/01 12:54:25;;;;;;;23.60;8.45;;;23.10;69.90;;;;;;5055093;28;20547;-73
2023/10/01 12:57:25;;;;;;;24.20;9.60;;;23.00;69.60;;;;;;5066202;28;20041;-72
2023/10/01 12:59:43;;;;;;;19.45;8.43;;;22.90;70.20;;;;;;5055201;28;20496;-72
2023/10/01 13:04:25;;;;;;;20.55;8.60;;;23.00;69.30;;;;;;5071398;28;20490;-72
2023/10/01 13:05:43;;;;;;;22.17;8.82;;;23.00;68.70;;;;;;5047765;28;20476;-72